createdAt,value
2023-03-19T00:01:26.898Z,36.70
2023-03-19T00:03:51.656Z,38.60
2023-03-19T00:06:16.496Z,42.17
2023-03-19T00:08:42.022Z,39.88
2023-03-19T00:11:13.476Z,40.72
2023-03-19T00:13:38.164Z,39.47
2023-03-19T00:16:02.639Z,37.42
2023-03-19T00:18:27.074Z,38.90
2023-03-19T00:20:52.987Z,43.05
2023-03-19T00:23:17.988Z,35.30
2023-03-19T00:25:42.371Z,37.72
2023-03-19T00:28:08.244Z,38.53
2023-03-19T00:30:32.719Z,39.53
2023-03-19T00:32:57.276Z,41.55
2023-03-19T00:35:21.975Z,40.75
2023-03-19T00:37:46.505Z,43.80
2023-03-19T00:40:12.355Z,43.95
2023-03-19T00:42:37.346Z,46.88
2023-03-19T00:45:03.792Z,42.58
2023-03-19T00:47:30.899Z,35.47
2023-03-19T00:49:55.802Z,46.17
2023-03-19T00:52:20.493Z,44.55
2023-03-19T00:54:45.020Z,43.60
2023-03-19T00:57:10.125Z,43.65
2023-03-19T00:59:34.568Z,41.95
2023-03-19T01:02:01.635Z,51.63
2023-03-19T01:04:26.245Z,43.35
2023-03-19T01:06:52.499Z,43.10
2023-03-19T01:09:17.361Z,45.85
2023-03-19T01:11:42.015Z,48.78
2023-03-19T01:14:06.888Z,50.83
2023-03-19T01:16:31.633Z,44.40
2023-03-19T01:18:58.551Z,49.60
2023-03-19T01:21:23.222Z,50.78
2023-03-19T01:23:48.319Z,49.75
2023-03-19T01:26:13.786Z,54.50
2023-03-19T01:28:38.693Z,46.85
2023-03-19T01:31:07.121Z,51.42
2023-03-19T01:33:31.762Z,60.00
2023-03-19T01:36:03.525Z,60.03
2023-03-19T01:38:35.919Z,57.78
2023-03-19T01:41:03.655Z,52.60
2023-03-19T01:43:30.806Z,54.22
2023-03-19T01:46:09.206Z,54.10
2023-03-19T01:48:55.109Z,61.40
2023-03-19T01:51:25.037Z,51.83
2023-03-19T01:54:21.658Z,50.15
2023-03-19T01:56:58.477Z,44.88
2023-03-19T01:59:50.289Z,47.80
2023-03-19T02:02:30.755Z,46.95
2023-03-19T02:05:02.113Z,50.25
2023-03-19T02:07:32.052Z,49.67
2023-03-19T02:09:56.693Z,46.30
2023-03-19T02:12:21.582Z,42.67
2023-03-19T02:14:46.176Z,43.97
2023-03-19T02:17:11.413Z,45.30
2023-03-19T02:19:47.168Z,40.33
2023-03-19T02:22:14.128Z,34.75
2023-03-19T02:24:46.576Z,36.35
2023-03-19T02:27:18.090Z,37.88
2023-03-19T02:29:45.586Z,38.63
2023-03-19T02:32:11.219Z,41.40
2023-03-19T02:34:39.217Z,39.97
2023-03-19T02:37:08.235Z,43.65
2023-03-19T02:39:39.448Z,51.95
2023-03-19T02:42:04.832Z,43.28
2023-03-19T02:44:30.859Z,55.45
2023-03-19T02:46:55.446Z,51.10
2023-03-19T02:49:20.353Z,51.22
2023-03-19T02:51:44.945Z,54.45
2023-03-19T02:54:09.821Z,49.83
2023-03-19T02:56:34.782Z,54.85
2023-03-19T02:58:59.232Z,53.78
2023-03-19T03:01:25.274Z,51.53
2023-03-19T03:03:49.840Z,58.53
2023-03-19T03:06:14.761Z,54.13
2023-03-19T03:08:39.304Z,49.17
2023-03-19T03:11:03.914Z,61.00
2023-03-19T03:13:29.285Z,67.78
2023-03-19T03:15:53.823Z,71.15
2023-03-19T03:18:19.908Z,67.07
2023-03-19T03:20:45.736Z,61.55
2023-03-19T03:23:11.493Z,70.30
2023-03-19T03:25:36.555Z,76.53
2023-03-19T03:28:01.086Z,76.97
2023-03-19T03:30:26.798Z,71.60
2023-03-19T03:32:52.061Z,65.47
2023-03-19T03:35:21.998Z,79.03
2023-03-19T03:40:11.912Z,50.78
2023-03-19T03:42:38.146Z,48.78
2023-03-19T03:45:05.776Z,53.35
2023-03-19T03:47:30.552Z,53.75
2023-03-19T03:49:55.772Z,40.38
2023-03-19T03:52:22.612Z,48.90
2023-03-19T03:54:47.092Z,47.40
2023-03-19T03:57:12.400Z,47.47
2023-03-19T03:59:37.248Z,48.70
2023-03-19T04:02:02.068Z,47.20
2023-03-19T04:04:26.852Z,45.63
2023-03-19T04:06:51.450Z,49.97
2023-03-19T04:09:37.711Z,44.15
2023-03-19T04:12:02.879Z,61.03
2023-03-19T04:14:27.941Z,64.25
2023-03-19T04:16:53.572Z,50.20
2023-03-19T04:19:21.481Z,53.42
2023-03-19T04:21:46.120Z,44.13
2023-03-19T04:24:11.510Z,53.15
2023-03-19T04:26:42.562Z,47.13
2023-03-19T04:29:08.538Z,54.05
2023-03-19T04:31:33.367Z,46.20
2023-03-19T04:33:58.534Z,49.67
2023-03-19T04:36:23.268Z,53.78
2023-03-19T04:38:47.953Z,51.80
2023-03-19T04:41:12.534Z,45.50
2023-03-19T04:43:44.628Z,46.00
2023-03-19T04:46:09.580Z,46.08
2023-03-19T04:48:35.928Z,46.97
2023-03-19T04:51:00.835Z,41.35
2023-03-19T04:53:25.836Z,45.92
2023-03-19T04:55:50.896Z,38.50
2023-03-19T04:58:17.640Z,42.70
2023-03-19T05:00:47.725Z,43.50
2023-03-19T05:03:17.226Z,43.50
2023-03-19T05:05:42.188Z,44.85
2023-03-19T05:08:07.472Z,42.90
2023-03-19T05:10:33.438Z,44.10
2023-03-19T05:12:58.021Z,47.40
2023-03-19T05:15:22.691Z,42.95
2023-03-19T05:18:06.425Z,49.00
2023-03-19T05:20:35.986Z,40.85
2023-03-19T05:23:04.537Z,44.40
2023-03-19T05:25:36.613Z,43.97
2023-03-19T05:28:04.517Z,42.88
2023-03-19T05:30:29.230Z,43.55
2023-03-19T05:33:06.738Z,45.33
2023-03-19T05:35:34.757Z,42.35
2023-03-19T05:38:01.661Z,43.60
2023-03-19T05:40:27.191Z,46.85
2023-03-19T05:42:52.969Z,48.40
2023-03-19T05:45:21.002Z,44.10
2023-03-19T05:47:52.865Z,45.45
2023-03-19T05:50:20.222Z,46.75
2023-03-19T05:53:07.952Z,48.15
2023-03-19T05:55:37.065Z,44.73
2023-03-19T05:58:04.521Z,45.70
2023-03-19T06:00:29.251Z,47.70
2023-03-19T06:02:54.969Z,46.08
2023-03-19T06:05:53.141Z,50.90
2023-03-19T06:08:37.865Z,49.47
2023-03-19T06:11:11.000Z,50.33
2023-03-19T06:13:36.062Z,56.10
2023-03-19T06:16:07.352Z,46.05
2023-03-19T06:18:40.502Z,47.63
2023-03-19T06:21:09.978Z,50.97
2023-03-19T06:23:34.918Z,53.17
2023-03-19T06:26:02.157Z,51.40
2023-03-19T06:28:31.949Z,53.40
2023-03-19T06:30:56.933Z,52.30
2023-03-19T06:33:39.628Z,53.63
2023-03-19T06:36:04.243Z,54.13
2023-03-19T06:38:32.013Z,55.55
2023-03-19T06:40:56.571Z,51.55
2023-03-19T06:43:21.070Z,44.03
2023-03-19T06:45:45.688Z,50.17
2023-03-19T06:48:10.178Z,50.55
2023-03-19T06:50:34.839Z,49.05
2023-03-19T06:52:59.742Z,55.08
2023-03-19T06:55:25.798Z,49.47
2023-03-19T06:57:51.432Z,51.40
2023-03-19T07:00:17.206Z,47.78
2023-03-19T07:02:41.823Z,42.58
2023-03-19T07:05:07.006Z,42.22
2023-03-19T07:07:31.700Z,46.45
2023-03-19T07:09:56.186Z,45.38
2023-03-19T07:12:22.016Z,46.28
2023-03-19T07:14:46.548Z,43.83
2023-03-19T07:17:11.121Z,43.03
2023-03-19T07:19:35.825Z,40.60
2023-03-19T07:22:00.377Z,40.55
2023-03-19T07:24:25.239Z,36.72
2023-03-19T07:26:52.013Z,42.22
2023-03-19T07:29:18.225Z,41.22
2023-03-19T07:31:43.007Z,44.97
2023-03-19T07:34:07.745Z,47.10
2023-03-19T07:36:32.228Z,50.05
2023-03-19T07:38:57.536Z,49.13
2023-03-19T07:41:22.139Z,51.67
2023-03-19T07:43:46.760Z,54.30
2023-03-19T07:46:12.830Z,49.67
2023-03-19T07:48:37.562Z,50.25
2023-03-19T07:51:02.873Z,53.75
2023-03-19T07:53:27.403Z,52.08
2023-03-19T07:55:52.242Z,56.30
2023-03-19T07:58:17.262Z,53.85
2023-03-19T08:00:41.767Z,56.15
2023-03-19T08:03:07.998Z,49.55
2023-03-19T08:05:32.655Z,50.38
2023-03-19T08:07:57.372Z,46.90
2023-03-19T08:10:22.088Z,52.33
2023-03-19T08:12:49.069Z,55.75
2023-03-19T08:15:14.079Z,53.03
2023-03-19T08:17:39.274Z,44.22
2023-03-19T08:20:06.336Z,40.95
2023-03-19T08:22:31.031Z,40.28
2023-03-19T08:24:55.673Z,42.55
2023-03-19T08:27:20.650Z,45.45
2023-03-19T08:29:45.783Z,43.42
2023-03-19T08:32:12.687Z,41.08
2023-03-19T08:34:37.181Z,38.53
2023-03-19T08:37:03.662Z,44.17
2023-03-19T08:39:28.731Z,36.30
2023-03-19T08:41:53.103Z,37.65
2023-03-19T08:44:17.433Z,39.35
2023-03-19T08:46:42.742Z,39.55
2023-03-19T08:49:07.193Z,40.05
2023-03-19T08:51:32.058Z,41.42
2023-03-19T08:53:57.935Z,38.97
2023-03-19T08:56:24.587Z,45.70
2023-03-19T08:58:49.135Z,46.70
2023-03-19T09:01:15.105Z,45.15
2023-03-19T09:03:40.167Z,44.03
2023-03-19T09:06:06.496Z,42.20
2023-03-19T09:08:37.903Z,37.63
2023-03-19T09:11:04.050Z,37.63
2023-03-19T09:13:28.768Z,39.08
2023-03-19T09:15:53.393Z,36.50
2023-03-19T09:18:18.008Z,37.58
2023-03-19T09:20:43.765Z,41.15
2023-03-19T09:23:08.258Z,42.55
2023-03-19T09:25:33.045Z,43.40
2023-03-19T09:27:59.135Z,43.67
2023-03-19T09:30:23.815Z,39.33
2023-03-19T09:32:48.205Z,37.30
2023-03-19T09:35:13.146Z,36.55
2023-03-19T09:37:37.754Z,33.90
2023-03-19T09:40:02.163Z,39.50
2023-03-19T09:42:46.393Z,39.58
2023-03-19T09:45:17.874Z,40.47
2023-03-19T09:47:43.727Z,40.75
2023-03-19T09:50:14.716Z,40.33
2023-03-19T09:52:52.891Z,41.72
2023-03-19T09:55:39.295Z,29.58
2023-03-19T09:58:15.818Z,35.33
2023-03-19T10:00:44.251Z,36.63
2023-03-19T10:03:25.524Z,36.20
2023-03-19T10:05:59.882Z,35.15
2023-03-19T10:08:45.836Z,40.10
2023-03-19T10:11:25.941Z,37.88
2023-03-19T10:14:03.893Z,36.83
2023-03-19T10:16:32.493Z,36.45
2023-03-19T10:19:00.916Z,37.78
2023-03-19T10:21:32.315Z,37.35
2023-03-19T10:24:01.936Z,39.35
2023-03-19T10:26:31.788Z,39.20
2023-03-19T10:31:34.692Z,52.78
2023-03-19T10:34:11.976Z,33.47
2023-03-19T10:36:38.036Z,36.05
2023-03-19T10:39:04.846Z,36.63
2023-03-19T10:41:39.531Z,35.67
2023-03-19T10:44:08.332Z,36.40
2023-03-19T10:46:44.351Z,37.30
2023-03-19T10:49:36.615Z,31.30
2023-03-19T10:52:01.565Z,32.97
2023-03-19T10:54:32.408Z,32.63
2023-03-19T10:57:04.566Z,29.67
2023-03-19T10:59:34.448Z,29.02
2023-03-19T11:02:12.451Z,28.60
2023-03-19T11:04:38.195Z,28.55
2023-03-19T11:07:10.573Z,24.23
2023-03-19T11:10:01.202Z,28.42
2023-03-19T11:12:34.056Z,26.17
2023-03-19T11:14:59.959Z,29.17
2023-03-19T11:17:38.033Z,30.65
2023-03-19T11:20:20.122Z,28.80
2023-03-19T11:22:46.179Z,23.55
2023-03-19T11:25:19.167Z,21.75
2023-03-19T11:27:45.768Z,25.13
2023-03-19T11:30:18.633Z,22.65
2023-03-19T11:33:09.986Z,21.92
2023-03-19T11:35:38.804Z,22.52
2023-03-19T11:38:05.157Z,21.67
2023-03-19T11:40:44.113Z,20.23
2023-03-19T11:43:32.596Z,20.63
2023-03-19T11:46:05.858Z,23.48
2023-03-19T11:48:47.862Z,20.17
2023-03-19T11:51:20.649Z,18.58
2023-03-19T11:54:00.562Z,23.33
2023-03-19T11:56:34.402Z,20.05
2023-03-19T11:59:33.480Z,17.42
2023-03-19T12:02:20.228Z,17.87
2023-03-19T12:05:00.938Z,13.68
2023-03-19T12:07:30.022Z,12.82
2023-03-19T12:10:05.790Z,14.63
2023-03-19T12:12:39.512Z,15.88
2023-03-19T12:15:14.192Z,16.30
2023-03-19T12:17:52.806Z,12.68
2023-03-19T12:20:36.289Z,13.93
2023-03-19T12:23:07.646Z,15.30
2023-03-19T12:25:43.614Z,14.50
2023-03-19T12:28:17.323Z,17.77
2023-03-19T12:30:46.199Z,17.60
2023-03-19T12:33:34.718Z,15.05
2023-03-19T12:36:03.222Z,16.02
2023-03-19T12:38:33.084Z,14.82
2023-03-19T12:43:29.780Z,15.80
2023-03-19T12:45:58.929Z,16.23
2023-03-19T12:48:29.617Z,13.17
2023-03-19T12:50:58.494Z,13.40
2023-03-19T12:53:35.711Z,13.13
2023-03-19T12:56:06.151Z,11.20
2023-03-19T12:58:45.097Z,15.65
2023-03-19T13:01:14.748Z,12.57
2023-03-19T13:03:46.898Z,16.50
2023-03-19T13:06:18.504Z,17.13
2023-03-19T13:08:49.303Z,16.48
2023-03-19T13:11:16.873Z,11.95
2023-03-19T13:13:46.784Z,12.85
2023-03-19T13:18:48.905Z,20.27
2023-03-19T13:21:23.544Z,13.25
2023-03-19T13:23:52.696Z,11.55
2023-03-19T13:26:18.845Z,16.57
2023-03-19T13:29:00.267Z,13.18
2023-03-19T13:31:28.082Z,11.85
2023-03-19T13:34:01.849Z,11.50
2023-03-19T13:36:32.863Z,10.68
2023-03-19T13:39:01.275Z,13.38
2023-03-19T13:41:52.475Z,13.65
2023-03-19T13:44:36.050Z,10.85
2023-03-19T13:47:03.960Z,13.50
2023-03-19T13:49:36.362Z,15.30
2023-03-19T13:52:20.590Z,13.50
2023-03-19T13:54:47.771Z,14.85
2023-03-19T13:57:37.991Z,16.70
2023-03-19T14:00:51.080Z,11.90
2023-03-19T14:03:22.845Z,16.35
2023-03-19T14:05:49.788Z,16.50
2023-03-19T14:08:20.484Z,19.60
2023-03-19T14:10:52.584Z,14.27
2023-03-19T14:13:24.585Z,14.15
2023-03-19T14:15:51.905Z,11.32
2023-03-19T14:18:20.144Z,10.77
2023-03-19T14:20:52.238Z,12.27
2023-03-19T14:23:36.101Z,13.77
2023-03-19T14:26:11.576Z,13.45
2023-03-19T14:28:43.494Z,22.35
2023-03-19T14:31:19.611Z,15.10
2023-03-19T14:33:48.026Z,16.90
2023-03-19T14:36:18.702Z,16.45
2023-03-19T14:38:50.772Z,14.00
2023-03-19T14:41:20.706Z,13.50
2023-03-19T14:44:06.810Z,14.63
2023-03-19T14:46:43.257Z,12.40
2023-03-19T14:49:55.790Z,16.58
2023-03-19T14:52:23.893Z,15.77
2023-03-19T14:54:52.378Z,14.88
2023-03-19T14:57:21.584Z,13.68
2023-03-19T14:59:46.372Z,14.85
2023-03-19T15:02:33.734Z,13.38
2023-03-19T15:05:00.523Z,13.10
2023-03-19T15:07:31.938Z,16.98
2023-03-19T15:09:58.595Z,14.30
2023-03-19T15:13:17.430Z,15.18
2023-03-19T15:15:59.702Z,14.30
2023-03-19T15:18:26.170Z,14.73
2023-03-19T15:20:55.568Z,18.17
2023-03-19T15:23:27.326Z,18.17
2023-03-19T15:25:58.276Z,18.90
2023-03-19T15:28:22.790Z,14.13
2023-03-19T15:31:05.754Z,15.35
2023-03-19T15:33:41.423Z,15.95
2023-03-19T15:36:12.101Z,15.90
2023-03-19T15:38:40.624Z,15.65
2023-03-19T15:41:06.842Z,15.50
2023-03-19T15:43:32.112Z,17.23
2023-03-19T15:45:58.800Z,14.25
2023-03-19T15:48:25.823Z,14.10
2023-03-19T15:50:53.112Z,16.05
2023-03-19T15:53:21.343Z,16.52
2023-03-19T15:55:46.113Z,16.27
2023-03-19T15:58:16.711Z,15.73
2023-03-19T16:00:42.637Z,14.90
2023-03-19T16:03:13.710Z,15.13
2023-03-19T16:05:38.206Z,18.10
2023-03-19T16:08:12.188Z,18.02
2023-03-19T16:10:42.486Z,23.13
2023-03-19T16:13:30.974Z,16.50
2023-03-19T16:16:03.091Z,15.13
2023-03-19T16:18:32.023Z,15.95
2023-03-19T16:21:08.312Z,16.50
2023-03-19T16:23:37.510Z,18.10
2023-03-19T16:26:16.881Z,13.60
2023-03-19T16:28:45.423Z,17.85
2023-03-19T16:31:24.865Z,18.05
2023-03-19T16:33:52.917Z,15.85
2023-03-19T16:36:17.387Z,18.75
2023-03-19T16:38:46.388Z,19.35
2023-03-19T16:41:19.362Z,21.45
2023-03-19T16:43:47.673Z,17.83
2023-03-19T16:46:16.570Z,20.08
2023-03-19T16:48:43.429Z,18.10
2023-03-19T16:51:16.779Z,20.00
2023-03-19T16:53:43.015Z,19.35
2023-03-19T16:56:08.527Z,17.77
2023-03-19T16:58:36.175Z,19.88
2023-03-19T17:01:01.873Z,21.48
2023-03-19T17:03:26.885Z,17.75
2023-03-19T17:05:51.458Z,25.48
2023-03-19T17:08:17.492Z,19.35
2023-03-19T17:10:44.864Z,22.65
2023-03-19T17:13:15.448Z,25.75
2023-03-19T17:15:44.214Z,24.77
2023-03-19T17:18:15.775Z,26.23
2023-03-19T17:20:47.913Z,25.35
2023-03-19T17:23:13.343Z,23.45
2023-03-19T17:25:39.838Z,24.08
2023-03-19T17:28:04.354Z,23.30
2023-03-19T17:30:29.019Z,29.70
2023-03-19T17:32:57.325Z,28.02
2023-03-19T17:35:23.312Z,32.65
2023-03-19T17:37:48.881Z,24.50
2023-03-19T17:40:19.608Z,24.20
2023-03-19T17:42:45.732Z,24.02
2023-03-19T17:45:13.957Z,26.98
2023-03-19T17:47:38.831Z,28.73
2023-03-19T17:50:03.509Z,33.15
2023-03-19T17:52:30.494Z,26.90
2023-03-19T17:54:55.437Z,27.58
2023-03-19T17:57:20.364Z,31.98
2023-03-19T17:59:46.340Z,30.63
2023-03-19T18:02:29.112Z,28.92
2023-03-19T18:04:54.131Z,27.00
2023-03-19T18:07:19.008Z,30.63
2023-03-19T18:09:44.367Z,33.20
2023-03-19T18:12:09.168Z,30.90
2023-03-19T18:14:33.709Z,33.00
2023-03-19T18:17:00.025Z,42.10
2023-03-19T18:19:29.777Z,42.42
2023-03-19T18:21:54.340Z,42.67
2023-03-19T18:24:19.180Z,45.85
2023-03-19T18:26:44.017Z,38.78
2023-03-19T18:29:09.151Z,41.95
2023-03-19T18:31:33.685Z,71.65
2023-03-19T18:34:03.713Z,74.57
2023-03-19T18:36:31.331Z,76.53
2023-03-19T18:38:59.108Z,67.38
2023-03-19T18:41:26.155Z,61.60
2023-03-19T18:44:03.024Z,59.47
2023-03-19T18:46:30.131Z,58.33
2023-03-19T18:48:56.942Z,53.38
2023-03-19T18:51:22.838Z,48.05
2023-03-19T18:53:49.201Z,37.58
2023-03-19T18:56:25.073Z,34.88
2023-03-19T18:58:50.119Z,33.90
2023-03-19T19:01:17.511Z,35.97
2023-03-19T19:03:42.021Z,35.78
2023-03-19T19:06:06.935Z,41.88
2023-03-19T19:08:33.063Z,49.10
2023-03-19T19:11:03.475Z,43.65
2023-03-19T19:13:53.314Z,46.28
2023-03-19T19:16:23.941Z,51.33
2023-03-19T19:18:49.134Z,41.60
2023-03-19T19:21:14.084Z,40.80
2023-03-19T19:23:40.003Z,41.03
2023-03-19T19:26:06.841Z,30.50
2023-03-19T19:28:34.142Z,37.17
2023-03-19T19:31:00.923Z,41.40
2023-03-19T19:33:27.785Z,40.63
2023-03-19T19:35:53.239Z,42.72
2023-03-19T19:38:17.690Z,46.03
2023-03-19T19:40:45.175Z,41.53
2023-03-19T19:43:18.222Z,46.20
2023-03-19T19:45:43.832Z,43.85
2023-03-19T19:48:16.250Z,39.28
2023-03-19T19:50:41.485Z,48.22
2023-03-19T19:53:06.624Z,42.88
2023-03-19T19:55:31.222Z,47.17
2023-03-19T19:57:58.676Z,47.92
2023-03-19T20:00:26.142Z,47.75
2023-03-19T20:02:53.397Z,43.70
2023-03-19T20:05:21.730Z,44.00
2023-03-19T20:07:46.312Z,50.15
2023-03-19T20:10:12.994Z,51.05
2023-03-19T20:12:37.756Z,50.08
2023-03-19T20:15:03.742Z,50.95
2023-03-19T20:17:28.382Z,44.38
2023-03-19T20:19:52.884Z,52.13
2023-03-19T20:22:17.553Z,49.10
2023-03-19T20:24:42.321Z,45.35
2023-03-19T20:27:19.300Z,48.03
2023-03-19T20:29:44.214Z,43.30
2023-03-19T20:32:27.043Z,44.70
2023-03-19T20:34:51.655Z,48.92
2023-03-19T20:37:16.661Z,52.22
2023-03-19T20:39:41.185Z,51.45
2023-03-19T20:42:06.331Z,55.65
2023-03-19T20:44:31.460Z,47.70
2023-03-19T20:46:55.955Z,55.42
2023-03-19T20:49:21.981Z,51.28
2023-03-19T20:51:46.643Z,57.25
2023-03-19T20:54:11.291Z,52.88
2023-03-19T20:56:39.301Z,54.10
2023-03-19T20:59:03.799Z,55.80
2023-03-19T21:01:28.358Z,57.40
2023-03-19T21:03:53.405Z,59.85
2023-03-19T21:06:21.870Z,57.55
2023-03-19T21:08:48.795Z,54.17
2023-03-19T21:11:17.860Z,66.55
2023-03-19T21:13:42.739Z,64.32
2023-03-19T21:16:08.256Z,58.25
2023-03-19T21:18:32.850Z,56.63
2023-03-19T21:20:59.794Z,53.58
2023-03-19T21:23:31.683Z,55.92
2023-03-19T21:25:56.538Z,55.97
2023-03-19T21:28:25.505Z,58.03
2023-03-19T21:30:50.072Z,62.58
2023-03-19T21:33:24.725Z,59.30
2023-03-19T21:35:49.452Z,65.05
2023-03-19T21:38:13.908Z,60.42
2023-03-19T21:40:40.000Z,61.38
2023-03-19T21:43:05.714Z,61.63
2023-03-19T21:45:33.953Z,62.95
2023-03-19T21:48:03.473Z,58.08
2023-03-19T21:50:27.933Z,59.65
2023-03-19T21:53:00.582Z,61.20
2023-03-19T21:55:25.852Z,58.00
2023-03-19T21:57:55.682Z,63.15
2023-03-19T22:00:21.588Z,54.58
2023-03-19T22:02:48.465Z,57.88
2023-03-19T22:05:18.345Z,52.67
2023-03-19T22:07:42.920Z,61.67
2023-03-19T22:10:08.054Z,61.47
2023-03-19T22:12:34.872Z,60.05
2023-03-19T22:15:01.279Z,58.53
2023-03-19T22:17:27.650Z,56.22
2023-03-19T22:19:52.104Z,58.83
2023-03-19T22:22:16.604Z,55.85
2023-03-19T22:24:42.092Z,55.53
2023-03-19T22:27:06.795Z,55.20
2023-03-19T22:29:34.385Z,62.08
2023-03-19T22:32:00.391Z,56.97
2023-03-19T22:34:27.702Z,56.15
2023-03-19T22:36:52.390Z,57.15
2023-03-19T22:39:16.936Z,56.25
2023-03-19T22:41:45.618Z,50.88
2023-03-19T22:44:18.559Z,53.05
2023-03-19T22:46:43.050Z,59.83
2023-03-19T22:49:14.528Z,48.75
2023-03-19T22:51:39.050Z,49.35
2023-03-19T22:54:03.518Z,49.70
2023-03-19T22:56:28.114Z,56.22
2023-03-19T22:58:53.110Z,57.85
2023-03-19T23:01:36.416Z,53.78
2023-03-19T23:04:20.435Z,58.60
2023-03-19T23:06:44.980Z,57.17
2023-03-19T23:09:14.046Z,63.67
2023-03-19T23:11:39.567Z,73.55
2023-03-19T23:14:04.000Z,59.22
2023-03-19T23:16:28.641Z,62.17
2023-03-19T23:21:23.535Z,67.03
2023-03-19T23:23:48.230Z,55.90
2023-03-19T23:26:26.660Z,60.95
2023-03-19T23:28:51.638Z,60.58
2023-03-19T23:31:16.300Z,62.05
2023-03-19T23:33:41.244Z,61.60
2023-03-19T23:36:06.351Z,61.53
2023-03-19T23:38:32.924Z,67.30
2023-03-19T23:40:57.457Z,58.92
2023-03-19T23:43:24.281Z,56.17
2023-03-19T23:45:50.094Z,52.33
2023-03-19T23:48:17.275Z,53.95
2023-03-19T23:50:41.772Z,57.95
2023-03-19T23:53:06.414Z,52.55
2023-03-19T23:55:33.648Z,45.47
2023-03-19T23:57:59.333Z,49.38
